sensor_id;sensor_type;location;lat;lon;timestamp;temperature;humidity
16347;DHT22;8283;48.504;13.734;2023-11-19T00:00:23;7.00;85.10
16347;DHT22;8283;48.504;13.734;2023-11-19T00:02:43;7.00;85.20
16347;DHT22;8283;48.504;13.734;2023-11-19T00:05:02;7.00;85.10
16347;DHT22;8283;48.504;13.734;2023-11-19T00:07:22;7.00;84.90
16347;DHT22;8283;48.504;13.734;2023-11-19T00:09:41;7.00;85.00
16347;DHT22;8283;48.504;13.734;2023-11-19T00:12:00;7.00;85.00
16347;DHT22;8283;48.504;13.734;2023-11-19T00:14:20;7.00;85.00
16347;DHT22;8283;48.504;13.734;2023-11-19T00:16:39;7.00;85.00
16347;DHT22;8283;48.504;13.734;2023-11-19T00:18:58;7.00;85.00
16347;DHT22;8283;48.504;13.734;2023-11-19T00:21:18;7.00;85.20
16347;DHT22;8283;48.504;13.734;2023-11-19T00:23:38;7.00;85.20
16347;DHT22;8283;48.504;13.734;2023-11-19T00:25:57;7.00;85.20
16347;DHT22;8283;48.504;13.734;2023-11-19T00:28:17;7.00;85.30
16347;DHT22;8283;48.504;13.734;2023-11-19T00:30:36;7.00;85.30
16347;DHT22;8283;48.504;13.734;2023-11-19T00:32:55;7.00;85.30
16347;DHT22;8283;48.504;13.734;2023-11-19T00:35:14;7.00;85.30
16347;DHT22;8283;48.504;13.734;2023-11-19T00:37:33;7.00;85.40
16347;DHT22;8283;48.504;13.734;2023-11-19T00:39:53;7.00;85.30
16347;DHT22;8283;48.504;13.734;2023-11-19T00:42:13;7.00;85.30
16347;DHT22;8283;48.504;13.734;2023-11-19T00:44:33;7.00;85.30
16347;DHT22;8283;48.504;13.734;2023-11-19T00:46:52;7.00;85.30
16347;DHT22;8283;48.504;13.734;2023-11-19T00:49:11;6.90;85.30
16347;DHT22;8283;48.504;13.734;2023-11-19T00:51:32;6.90;85.50
16347;DHT22;8283;48.504;13.734;2023-11-19T00:53:51;6.90;85.50
16347;DHT22;8283;48.504;13.734;2023-11-19T00:56:12;6.90;85.60
16347;DHT22;8283;48.504;13.734;2023-11-19T00:58:31;6.90;85.60
16347;DHT22;8283;48.504;13.734;2023-11-19T01:00:51;6.90;85.60
16347;DHT22;8283;48.504;13.734;2023-11-19T01:03:11;6.90;85.60
16347;DHT22;8283;48.504;13.734;2023-11-19T01:05:31;7.00;85.80
16347;DHT22;8283;48.504;13.734;2023-11-19T01:07:50;7.00;85.80
16347;DHT22;8283;48.504;13.734;2023-11-19T01:10:12;7.00;85.80
16347;DHT22;8283;48.504;13.734;2023-11-19T01:12:31;7.00;85.80
16347;DHT22;8283;48.504;13.734;2023-11-19T01:14:50;7.00;85.80
16347;DHT22;8283;48.504;13.734;2023-11-19T01:17:09;7.00;85.80
16347;DHT22;8283;48.504;13.734;2023-11-19T01:19:29;7.00;85.80
16347;DHT22;8283;48.504;13.734;2023-11-19T01:21:50;7.00;85.80
16347;DHT22;8283;48.504;13.734;2023-11-19T01:24:09;7.00;85.80
16347;DHT22;8283;48.504;13.734;2023-11-19T01:26:30;7.00;85.60
16347;DHT22;8283;48.504;13.734;2023-11-19T01:28:49;7.00;85.70
16347;DHT22;8283;48.504;13.734;2023-11-19T01:31:12;7.00;85.70
16347;DHT22;8283;48.504;13.734;2023-11-19T01:33:37;7.00;85.80
16347;DHT22;8283;48.504;13.734;2023-11-19T01:35:56;7.00;85.90
16347;DHT22;8283;48.504;13.734;2023-11-19T01:38:17;7.00;86.00
16347;DHT22;8283;48.504;13.734;2023-11-19T01:40:37;7.00;86.10
16347;DHT22;8283;48.504;13.734;2023-11-19T01:42:56;7.00;86.20
16347;DHT22;8283;48.504;13.734;2023-11-19T01:45:22;7.00;86.20
16347;DHT22;8283;48.504;13.734;2023-11-19T01:47:45;7.10;86.70
16347;DHT22;8283;48.504;13.734;2023-11-19T01:50:06;7.10;86.20
16347;DHT22;8283;48.504;13.734;2023-11-19T01:52:27;7.10;86.30
16347;DHT22;8283;48.504;13.734;2023-11-19T01:54:47;7.10;86.20
16347;DHT22;8283;48.504;13.734;2023-11-19T01:57:06;7.10;86.10
16347;DHT22;8283;48.504;13.734;2023-11-19T01:59:26;7.10;86.10
16347;DHT22;8283;48.504;13.734;2023-11-19T02:01:46;7.10;86.10
16347;DHT22;8283;48.504;13.734;2023-11-19T02:04:07;7.10;86.10
16347;DHT22;8283;48.504;13.734;2023-11-19T02:06:27;7.10;86.20
16347;DHT22;8283;48.504;13.734;2023-11-19T02:08:47;7.10;86.20
16347;DHT22;8283;48.504;13.734;2023-11-19T02:11:07;7.10;86.10
16347;DHT22;8283;48.504;13.734;2023-11-19T02:13:27;7.10;86.10
16347;DHT22;8283;48.504;13.734;2023-11-19T02:15:47;7.10;86.10
16347;DHT22;8283;48.504;13.734;2023-11-19T02:20:42;7.10;87.20
16347;DHT22;8283;48.504;13.734;2023-11-19T02:23:01;7.10;86.30
16347;DHT22;8283;48.504;13.734;2023-11-19T02:25:28;7.10;86.30
16347;DHT22;8283;48.504;13.734;2023-11-19T02:30:08;7.10;86.40
16347;DHT22;8283;48.504;13.734;2023-11-19T02:32:28;7.10;86.40
16347;DHT22;8283;48.504;13.734;2023-11-19T02:34:49;7.10;86.30
16347;DHT22;8283;48.504;13.734;2023-11-19T02:37:09;7.10;86.30
16347;DHT22;8283;48.504;13.734;2023-11-19T02:39:29;7.10;86.40
16347;DHT22;8283;48.504;13.734;2023-11-19T02:41:49;7.10;86.40
16347;DHT22;8283;48.504;13.734;2023-11-19T02:44:12;7.10;86.30
16347;DHT22;8283;48.504;13.734;2023-11-19T02:46:32;7.10;86.30
16347;DHT22;8283;48.504;13.734;2023-11-19T02:48:52;7.10;86.40
16347;DHT22;8283;48.504;13.734;2023-11-19T02:51:11;7.10;86.50
16347;DHT22;8283;48.504;13.734;2023-11-19T02:53:31;7.10;86.50
16347;DHT22;8283;48.504;13.734;2023-11-19T02:55:51;7.10;86.70
16347;DHT22;8283;48.504;13.734;2023-11-19T02:58:10;7.10;86.70
16347;DHT22;8283;48.504;13.734;2023-11-19T03:00:40;7.10;86.70
16347;DHT22;8283;48.504;13.734;2023-11-19T03:03:07;7.10;86.80
16347;DHT22;8283;48.504;13.734;2023-11-19T03:05:37;7.10;86.80
16347;DHT22;8283;48.504;13.734;2023-11-19T03:07:56;7.10;86.80
16347;DHT22;8283;48.504;13.734;2023-11-19T03:10:16;7.10;86.80
16347;DHT22;8283;48.504;13.734;2023-11-19T03:12:36;7.00;86.80
16347;DHT22;8283;48.504;13.734;2023-11-19T03:14:55;7.10;87.00
16347;DHT22;8283;48.504;13.734;2023-11-19T03:17:14;7.00;86.90
16347;DHT22;8283;48.504;13.734;2023-11-19T03:19:33;7.00;87.00
16347;DHT22;8283;48.504;13.734;2023-11-19T03:21:53;7.00;87.00
16347;DHT22;8283;48.504;13.734;2023-11-19T03:24:13;7.00;87.10
16347;DHT22;8283;48.504;13.734;2023-11-19T03:26:32;7.00;87.10
16347;DHT22;8283;48.504;13.734;2023-11-19T03:28:53;7.00;87.10
16347;DHT22;8283;48.504;13.734;2023-11-19T03:31:13;7.10;87.20
16347;DHT22;8283;48.504;13.734;2023-11-19T03:33:33;7.10;87.10
16347;DHT22;8283;48.504;13.734;2023-11-19T03:35:52;7.10;87.10
16347;DHT22;8283;48.504;13.734;2023-11-19T03:38:11;7.10;87.10
16347;DHT22;8283;48.504;13.734;2023-11-19T03:40:31;7.10;87.10
16347;DHT22;8283;48.504;13.734;2023-11-19T03:42:51;7.10;87.10
16347;DHT22;8283;48.504;13.734;2023-11-19T03:45:10;7.10;87.10
16347;DHT22;8283;48.504;13.734;2023-11-19T03:47:30;7.10;87.10
16347;DHT22;8283;48.504;13.734;2023-11-19T03:49:50;7.10;87.20
16347;DHT22;8283;48.504;13.734;2023-11-19T03:52:09;7.10;87.30
16347;DHT22;8283;48.504;13.734;2023-11-19T03:54:29;7.10;87.40
16347;DHT22;8283;48.504;13.734;2023-11-19T03:56:48;7.10;87.30
16347;DHT22;8283;48.504;13.734;2023-11-19T03:59:07;7.10;87.30
16347;DHT22;8283;48.504;13.734;2023-11-19T04:01:28;7.10;87.40
16347;DHT22;8283;48.504;13.734;2023-11-19T04:03:47;7.10;87.50
16347;DHT22;8283;48.504;13.734;2023-11-19T04:06:07;7.10;87.50
16347;DHT22;8283;48.504;13.734;2023-11-19T04:08:26;7.20;87.50
16347;DHT22;8283;48.504;13.734;2023-11-19T04:10:45;7.20;87.60
16347;DHT22;8283;48.504;13.734;2023-11-19T04:13:05;7.20;87.60
16347;DHT22;8283;48.504;13.734;2023-11-19T04:15:24;7.20;87.60
16347;DHT22;8283;48.504;13.734;2023-11-19T04:17:43;7.20;87.60
16347;DHT22;8283;48.504;13.734;2023-11-19T04:20:04;7.20;87.60
16347;DHT22;8283;48.504;13.734;2023-11-19T04:22:23;7.20;87.50
16347;DHT22;8283;48.504;13.734;2023-11-19T04:24:43;7.20;87.50
16347;DHT22;8283;48.504;13.734;2023-11-19T04:27:04;7.20;87.40
16347;DHT22;8283;48.504;13.734;2023-11-19T04:29:25;7.20;87.40
16347;DHT22;8283;48.504;13.734;2023-11-19T04:31:46;7.20;87.50
16347;DHT22;8283;48.504;13.734;2023-11-19T04:34:06;7.20;89.00
16347;DHT22;8283;48.504;13.734;2023-11-19T04:36:26;7.20;87.50
16347;DHT22;8283;48.504;13.734;2023-11-19T04:38:45;7.20;87.50
16347;DHT22;8283;48.504;13.734;2023-11-19T04:41:05;7.20;87.50
16347;DHT22;8283;48.504;13.734;2023-11-19T04:43:25;7.20;87.60
16347;DHT22;8283;48.504;13.734;2023-11-19T04:45:44;7.20;87.70
16347;DHT22;8283;48.504;13.734;2023-11-19T04:48:03;7.20;87.80
16347;DHT22;8283;48.504;13.734;2023-11-19T04:50:22;7.20;87.80
16347;DHT22;8283;48.504;13.734;2023-11-19T04:52:42;7.20;87.80
16347;DHT22;8283;48.504;13.734;2023-11-19T04:55:04;7.20;87.80
16347;DHT22;8283;48.504;13.734;2023-11-19T04:57:23;7.30;88.40
16347;DHT22;8283;48.504;13.734;2023-11-19T04:59:43;7.30;87.70
16347;DHT22;8283;48.504;13.734;2023-11-19T05:02:02;7.30;87.80
16347;DHT22;8283;48.504;13.734;2023-11-19T05:04:23;7.30;87.80
16347;DHT22;8283;48.504;13.734;2023-11-19T05:06:42;7.30;87.80
16347;DHT22;8283;48.504;13.734;2023-11-19T05:09:02;7.30;87.80
16347;DHT22;8283;48.504;13.734;2023-11-19T05:11:27;7.30;87.70
16347;DHT22;8283;48.504;13.734;2023-11-19T05:13:47;7.30;87.60
16347;DHT22;8283;48.504;13.734;2023-11-19T05:16:06;7.30;87.60
16347;DHT22;8283;48.504;13.734;2023-11-19T05:18:26;7.30;87.60
16347;DHT22;8283;48.504;13.734;2023-11-19T05:20:45;7.30;87.80
16347;DHT22;8283;48.504;13.734;2023-11-19T05:23:05;7.30;87.90
16347;DHT22;8283;48.504;13.734;2023-11-19T05:25:24;7.30;87.90
16347;DHT22;8283;48.504;13.734;2023-11-19T05:27:44;7.30;88.00
16347;DHT22;8283;48.504;13.734;2023-11-19T05:30:05;7.30;87.90
16347;DHT22;8283;48.504;13.734;2023-11-19T05:32:28;7.40;88.10
16347;DHT22;8283;48.504;13.734;2023-11-19T05:34:48;7.40;88.00
16347;DHT22;8283;48.504;13.734;2023-11-19T05:37:07;7.30;87.90
16347;DHT22;8283;48.504;13.734;2023-11-19T05:39:29;7.40;88.10
16347;DHT22;8283;48.504;13.734;2023-11-19T05:41:49;7.40;88.00
16347;DHT22;8283;48.504;13.734;2023-11-19T05:44:08;7.40;88.00
16347;DHT22;8283;48.504;13.734;2023-11-19T05:46:27;7.40;87.90
16347;DHT22;8283;48.504;13.734;2023-11-19T05:48:47;7.40;87.90
16347;DHT22;8283;48.504;13.734;2023-11-19T05:51:06;7.40;87.80
16347;DHT22;8283;48.504;13.734;2023-11-19T05:53:25;7.40;87.80
16347;DHT22;8283;48.504;13.734;2023-11-19T05:55:45;7.40;87.90
16347;DHT22;8283;48.504;13.734;2023-11-19T05:58:16;8.20;88.40
16347;DHT22;8283;48.504;13.734;2023-11-19T06:00:36;7.40;89.30
16347;DHT22;8283;48.504;13.734;2023-11-19T06:02:55;7.40;87.80
16347;DHT22;8283;48.504;13.734;2023-11-19T06:05:15;7.40;87.90
16347;DHT22;8283;48.504;13.734;2023-11-19T06:07:34;7.40;88.00
16347;DHT22;8283;48.504;13.734;2023-11-19T06:09:54;7.40;88.00
16347;DHT22;8283;48.504;13.734;2023-11-19T06:12:13;7.40;88.10
16347;DHT22;8283;48.504;13.734;2023-11-19T06:14:32;7.40;88.10
16347;DHT22;8283;48.504;13.734;2023-11-19T06:16:52;7.40;88.10
16347;DHT22;8283;48.504;13.734;2023-11-19T06:19:11;7.40;88.10
16347;DHT22;8283;48.504;13.734;2023-11-19T06:21:31;7.50;88.30
16347;DHT22;8283;48.504;13.734;2023-11-19T06:23:50;7.50;88.20
16347;DHT22;8283;48.504;13.734;2023-11-19T06:26:11;7.50;88.20
16347;DHT22;8283;48.504;13.734;2023-11-19T06:28:30;7.50;88.20
16347;DHT22;8283;48.504;13.734;2023-11-19T06:30:50;7.50;88.20
16347;DHT22;8283;48.504;13.734;2023-11-19T06:33:13;7.50;88.20
16347;DHT22;8283;48.504;13.734;2023-11-19T06:35:32;6.40;87.60
16347;DHT22;8283;48.504;13.734;2023-11-19T06:37:55;7.50;88.10
16347;DHT22;8283;48.504;13.734;2023-11-19T06:40:15;7.50;88.10
16347;DHT22;8283;48.504;13.734;2023-11-19T06:42:36;7.50;88.20
16347;DHT22;8283;48.504;13.734;2023-11-19T06:44:56;7.50;88.20
16347;DHT22;8283;48.504;13.734;2023-11-19T06:47:19;7.50;88.20
16347;DHT22;8283;48.504;13.734;2023-11-19T06:49:38;7.50;88.20
16347;DHT22;8283;48.504;13.734;2023-11-19T06:51:58;7.50;88.20
16347;DHT22;8283;48.504;13.734;2023-11-19T06:54:18;7.50;88.20
16347;DHT22;8283;48.504;13.734;2023-11-19T06:56:37;7.50;88.20
16347;DHT22;8283;48.504;13.734;2023-11-19T06:58:56;7.50;88.30
16347;DHT22;8283;48.504;13.734;2023-11-19T07:01:16;7.50;88.30
16347;DHT22;8283;48.504;13.734;2023-11-19T07:03:37;7.50;88.40
16347;DHT22;8283;48.504;13.734;2023-11-19T07:05:56;7.50;89.60
16347;DHT22;8283;48.504;13.734;2023-11-19T07:08:15;7.50;88.10
16347;DHT22;8283;48.504;13.734;2023-11-19T07:10:35;7.50;88.20
16347;DHT22;8283;48.504;13.734;2023-11-19T07:12:54;7.50;88.10
16347;DHT22;8283;48.504;13.734;2023-11-19T07:15:13;7.50;88.20
16347;DHT22;8283;48.504;13.734;2023-11-19T07:17:33;7.50;88.30
16347;DHT22;8283;48.504;13.734;2023-11-19T07:19:54;7.50;88.30
16347;DHT22;8283;48.504;13.734;2023-11-19T07:22:14;7.50;88.40
16347;DHT22;8283;48.504;13.734;2023-11-19T07:24:34;7.50;88.40
16347;DHT22;8283;48.504;13.734;2023-11-19T07:26:53;7.50;88.30
16347;DHT22;8283;48.504;13.734;2023-11-19T07:29:14;7.60;88.30
16347;DHT22;8283;48.504;13.734;2023-11-19T07:31:54;7.60;88.30
16347;DHT22;8283;48.504;13.734;2023-11-19T07:34:35;7.50;88.20
16347;DHT22;8283;48.504;13.734;2023-11-19T07:37:14;7.50;88.20
16347;DHT22;8283;48.504;13.734;2023-11-19T07:39:54;7.50;88.20
16347;DHT22;8283;48.504;13.734;2023-11-19T07:42:13;7.50;88.20
16347;DHT22;8283;48.504;13.734;2023-11-19T07:44:33;7.50;88.30
16347;DHT22;8283;48.504;13.734;2023-11-19T07:46:52;7.50;88.30
16347;DHT22;8283;48.504;13.734;2023-11-19T07:49:11;7.50;88.30
16347;DHT22;8283;48.504;13.734;2023-11-19T07:51:31;7.50;88.40
16347;DHT22;8283;48.504;13.734;2023-11-19T07:53:50;7.50;88.40
16347;DHT22;8283;48.504;13.734;2023-11-19T07:56:10;7.50;88.40
16347;DHT22;8283;48.504;13.734;2023-11-19T07:58:30;7.50;88.50
16347;DHT22;8283;48.504;13.734;2023-11-19T08:00:49;7.50;88.40
16347;DHT22;8283;48.504;13.734;2023-11-19T08:03:08;7.50;88.50
16347;DHT22;8283;48.504;13.734;2023-11-19T08:05:28;7.50;88.60
16347;DHT22;8283;48.504;13.734;2023-11-19T08:07:47;7.50;88.70
16347;DHT22;8283;48.504;13.734;2023-11-19T08:10:07;7.50;88.90
16347;DHT22;8283;48.504;13.734;2023-11-19T08:12:28;7.50;89.00
16347;DHT22;8283;48.504;13.734;2023-11-19T08:14:48;7.50;89.10
16347;DHT22;8283;48.504;13.734;2023-11-19T08:17:08;7.50;89.20
16347;DHT22;8283;48.504;13.734;2023-11-19T08:19:27;7.50;89.20
16347;DHT22;8283;48.504;13.734;2023-11-19T08:21:47;7.50;89.30
16347;DHT22;8283;48.504;13.734;2023-11-19T08:24:06;7.50;89.30
16347;DHT22;8283;48.504;13.734;2023-11-19T08:26:26;7.60;89.50
16347;DHT22;8283;48.504;13.734;2023-11-19T08:28:45;7.50;89.50
16347;DHT22;8283;48.504;13.734;2023-11-19T08:31:05;7.60;89.70
16347;DHT22;8283;48.504;13.734;2023-11-19T08:33:24;7.60;89.80
16347;DHT22;8283;48.504;13.734;2023-11-19T08:35:43;7.60;89.80
16347;DHT22;8283;48.504;13.734;2023-11-19T08:38:04;7.60;89.90
16347;DHT22;8283;48.504;13.734;2023-11-19T08:40:23;7.70;89.90
16347;DHT22;8283;48.504;13.734;2023-11-19T08:42:43;7.70;89.80
16347;DHT22;8283;48.504;13.734;2023-11-19T08:45:03;7.70;89.80
16347;DHT22;8283;48.504;13.734;2023-11-19T08:47:23;7.70;89.80
16347;DHT22;8283;48.504;13.734;2023-11-19T08:49:43;7.70;89.90
16347;DHT22;8283;48.504;13.734;2023-11-19T08:52:03;7.70;90.00
16347;DHT22;8283;48.504;13.734;2023-11-19T08:54:22;7.70;90.00
16347;DHT22;8283;48.504;13.734;2023-11-19T08:56:41;7.80;90.10
16347;DHT22;8283;48.504;13.734;2023-11-19T08:59:01;7.80;90.10
16347;DHT22;8283;48.504;13.734;2023-11-19T09:01:20;7.90;90.10
16347;DHT22;8283;48.504;13.734;2023-11-19T09:03:39;7.90;90.10
16347;DHT22;8283;48.504;13.734;2023-11-19T09:06:00;7.90;90.10
16347;DHT22;8283;48.504;13.734;2023-11-19T09:08:19;8.00;90.10
16347;DHT22;8283;48.504;13.734;2023-11-19T09:10:39;8.00;90.10
16347;DHT22;8283;48.504;13.734;2023-11-19T09:12:58;8.00;90.10
16347;DHT22;8283;48.504;13.734;2023-11-19T09:15:17;8.10;90.20
16347;DHT22;8283;48.504;13.734;2023-11-19T09:17:36;8.10;90.20
16347;DHT22;8283;48.504;13.734;2023-11-19T09:19:55;8.10;90.20
16347;DHT22;8283;48.504;13.734;2023-11-19T09:22:14;8.20;90.20
16347;DHT22;8283;48.504;13.734;2023-11-19T09:24:34;8.20;90.20
16347;DHT22;8283;48.504;13.734;2023-11-19T09:26:53;8.30;90.20
16347;DHT22;8283;48.504;13.734;2023-11-19T09:29:14;8.30;90.10
16347;DHT22;8283;48.504;13.734;2023-11-19T09:31:38;8.30;90.10
16347;DHT22;8283;48.504;13.734;2023-11-19T09:33:57;8.30;90.10
16347;DHT22;8283;48.504;13.734;2023-11-19T09:36:16;8.40;90.60
16347;DHT22;8283;48.504;13.734;2023-11-19T09:38:36;8.40;90.00
16347;DHT22;8283;48.504;13.734;2023-11-19T09:40:59;8.40;90.00
16347;DHT22;8283;48.504;13.734;2023-11-19T09:43:27;8.40;90.00
16347;DHT22;8283;48.504;13.734;2023-11-19T09:45:51;8.40;90.00
16347;DHT22;8283;48.504;13.734;2023-11-19T09:48:10;8.40;90.10
16347;DHT22;8283;48.504;13.734;2023-11-19T09:50:31;8.40;90.00
16347;DHT22;8283;48.504;13.734;2023-11-19T09:52:50;8.40;89.90
16347;DHT22;8283;48.504;13.734;2023-11-19T09:55:10;8.40;90.00
16347;DHT22;8283;48.504;13.734;2023-11-19T09:57:30;8.40;90.00
16347;DHT22;8283;48.504;13.734;2023-11-19T09:59:52;8.40;90.00
16347;DHT22;8283;48.504;13.734;2023-11-19T10:02:13;8.40;90.00
16347;DHT22;8283;48.504;13.734;2023-11-19T10:04:34;8.40;90.00
16347;DHT22;8283;48.504;13.734;2023-11-19T10:06:55;8.40;90.00
16347;DHT22;8283;48.504;13.734;2023-11-19T10:09:14;8.40;90.00
16347;DHT22;8283;48.504;13.734;2023-11-19T10:11:34;8.40;90.00
16347;DHT22;8283;48.504;13.734;2023-11-19T10:13:54;8.40;90.00
16347;DHT22;8283;48.504;13.734;2023-11-19T10:16:13;8.40;89.90
16347;DHT22;8283;48.504;13.734;2023-11-19T10:18:33;8.40;89.80
16347;DHT22;8283;48.504;13.734;2023-11-19T10:20:56;8.40;90.00
16347;DHT22;8283;48.504;13.734;2023-11-19T10:23:16;8.40;90.00
16347;DHT22;8283;48.504;13.734;2023-11-19T10:25:35;8.50;90.00
16347;DHT22;8283;48.504;13.734;2023-11-19T10:27:55;8.50;90.10
16347;DHT22;8283;48.504;13.734;2023-11-19T10:30:28;8.50;90.10
16347;DHT22;8283;48.504;13.734;2023-11-19T10:33:07;8.50;90.40
16347;DHT22;8283;48.504;13.734;2023-11-19T10:35:26;8.60;90.60
16347;DHT22;8283;48.504;13.734;2023-11-19T10:37:46;8.60;90.20
16347;DHT22;8283;48.504;13.734;2023-11-19T10:40:06;8.60;90.20
16347;DHT22;8283;48.504;13.734;2023-11-19T10:42:26;8.60;90.30
16347;DHT22;8283;48.504;13.734;2023-11-19T10:44:45;8.70;90.30
16347;DHT22;8283;48.504;13.734;2023-11-19T10:47:08;8.70;90.30
16347;DHT22;8283;48.504;13.734;2023-11-19T10:49:28;8.80;90.40
16347;DHT22;8283;48.504;13.734;2023-11-19T10:51:48;8.80;90.20
16347;DHT22;8283;48.504;13.734;2023-11-19T10:54:09;8.80;90.10
16347;DHT22;8283;48.504;13.734;2023-11-19T10:56:31;8.80;90.10
16347;DHT22;8283;48.504;13.734;2023-11-19T10:58:51;8.80;90.00
16347;DHT22;8283;48.504;13.734;2023-11-19T11:01:19;8.80;89.90
16347;DHT22;8283;48.504;13.734;2023-11-19T11:03:42;8.80;90.00
16347;DHT22;8283;48.504;13.734;2023-11-19T11:06:05;8.80;89.90
16347;DHT22;8283;48.504;13.734;2023-11-19T11:08:25;8.80;90.00
16347;DHT22;8283;48.504;13.734;2023-11-19T11:10:55;8.80;90.10
16347;DHT22;8283;48.504;13.734;2023-11-19T11:13:16;8.90;90.50
16347;DHT22;8283;48.504;13.734;2023-11-19T11:15:36;8.90;90.40
16347;DHT22;8283;48.504;13.734;2023-11-19T11:18:01;8.90;90.50
16347;DHT22;8283;48.504;13.734;2023-11-19T11:20:23;9.00;90.70
16347;DHT22;8283;48.504;13.734;2023-11-19T11:23:04;9.00;90.70
16347;DHT22;8283;48.504;13.734;2023-11-19T11:25:44;9.10;90.80
16347;DHT22;8283;48.504;13.734;2023-11-19T11:30:49;9.30;90.80
16347;DHT22;8283;48.504;13.734;2023-11-19T11:35:55;9.40;90.90
16347;DHT22;8283;48.504;13.734;2023-11-19T11:38:24;9.50;90.70
16347;DHT22;8283;48.504;13.734;2023-11-19T11:41:17;9.50;90.50
16347;DHT22;8283;48.504;13.734;2023-11-19T11:43:50;9.60;90.50
16347;DHT22;8283;48.504;13.734;2023-11-19T11:48:52;9.70;90.40
16347;DHT22;8283;48.504;13.734;2023-11-19T11:51:11;9.50;90.10
16347;DHT22;8283;48.504;13.734;2023-11-19T11:53:30;9.70;90.20
16347;DHT22;8283;48.504;13.734;2023-11-19T11:55:54;9.70;90.20
16347;DHT22;8283;48.504;13.734;2023-11-19T11:58:26;9.70;90.10
16347;DHT22;8283;48.504;13.734;2023-11-19T12:00:47;9.80;90.00
16347;DHT22;8283;48.504;13.734;2023-11-19T12:03:07;9.70;89.90
16347;DHT22;8283;48.504;13.734;2023-11-19T12:05:28;9.80;90.30
16347;DHT22;8283;48.504;13.734;2023-11-19T12:08:01;9.70;90.30
16347;DHT22;8283;48.504;13.734;2023-11-19T12:10:21;9.70;90.10
16347;DHT22;8283;48.504;13.734;2023-11-19T12:12:41;9.80;90.00
16347;DHT22;8283;48.504;13.734;2023-11-19T12:19:53;9.80;90.20
16347;DHT22;8283;48.504;13.734;2023-11-19T12:22:13;9.80;90.10
16347;DHT22;8283;48.504;13.734;2023-11-19T12:24:33;9.80;90.10
16347;DHT22;8283;48.504;13.734;2023-11-19T12:26:53;9.80;90.10
16347;DHT22;8283;48.504;13.734;2023-11-19T12:29:13;9.10;89.50
16347;DHT22;8283;48.504;13.734;2023-11-19T12:31:32;9.80;90.00
16347;DHT22;8283;48.504;13.734;2023-11-19T12:33:54;9.80;89.80
16347;DHT22;8283;48.504;13.734;2023-11-19T12:36:13;9.70;89.70
16347;DHT22;8283;48.504;13.734;2023-11-19T12:38:33;9.70;89.50
16347;DHT22;8283;48.504;13.734;2023-11-19T12:41:08;9.70;89.50
16347;DHT22;8283;48.504;13.734;2023-11-19T12:43:30;9.70;90.40
16347;DHT22;8283;48.504;13.734;2023-11-19T12:45:50;9.60;89.40
16347;DHT22;8283;48.504;13.734;2023-11-19T12:48:09;9.50;89.10
16347;DHT22;8283;48.504;13.734;2023-11-19T12:50:29;9.50;89.30
16347;DHT22;8283;48.504;13.734;2023-11-19T12:52:58;9.40;89.40
16347;DHT22;8283;48.504;13.734;2023-11-19T12:55:37;9.40;90.00
16347;DHT22;8283;48.504;13.734;2023-11-19T12:57:57;9.30;89.80
16347;DHT22;8283;48.504;13.734;2023-11-19T13:00:25;9.30;89.30
16347;DHT22;8283;48.504;13.734;2023-11-19T13:02:53;9.20;90.00
16347;DHT22;8283;48.504;13.734;2023-11-19T13:05:25;9.20;90.20
16347;DHT22;8283;48.504;13.734;2023-11-19T13:07:45;9.20;90.70
16347;DHT22;8283;48.504;13.734;2023-11-19T13:10:05;8.40;90.10
16347;DHT22;8283;48.504;13.734;2023-11-19T13:12:25;9.30;90.40
16347;DHT22;8283;48.504;13.734;2023-11-19T13:14:44;9.30;90.40
16347;DHT22;8283;48.504;13.734;2023-11-19T13:17:05;9.30;90.50
16347;DHT22;8283;48.504;13.734;2023-11-19T13:19:24;9.40;90.60
16347;DHT22;8283;48.504;13.734;2023-11-19T13:21:44;9.40;90.70
16347;DHT22;8283;48.504;13.734;2023-11-19T13:24:07;9.40;90.80
16347;DHT22;8283;48.504;13.734;2023-11-19T13:26:26;9.50;91.00
16347;DHT22;8283;48.504;13.734;2023-11-19T13:28:45;9.60;91.10
16347;DHT22;8283;48.504;13.734;2023-11-19T13:31:05;9.60;91.20
16347;DHT22;8283;48.504;13.734;2023-11-19T13:33:25;9.70;91.30
16347;DHT22;8283;48.504;13.734;2023-11-19T13:35:45;9.80;91.40
16347;DHT22;8283;48.504;13.734;2023-11-19T13:38:04;9.90;91.50
16347;DHT22;8283;48.504;13.734;2023-11-19T13:40:24;10.00;91.50
16347;DHT22;8283;48.504;13.734;2023-11-19T13:42:44;10.10;91.50
16347;DHT22;8283;48.504;13.734;2023-11-19T13:45:04;10.10;91.40
16347;DHT22;8283;48.504;13.734;2023-11-19T13:47:23;10.20;91.40
16347;DHT22;8283;48.504;13.734;2023-11-19T13:49:44;10.20;91.30
16347;DHT22;8283;48.504;13.734;2023-11-19T13:52:04;10.30;91.30
16347;DHT22;8283;48.504;13.734;2023-11-19T13:54:23;10.30;91.20
16347;DHT22;8283;48.504;13.734;2023-11-19T13:56:43;10.30;91.40
16347;DHT22;8283;48.504;13.734;2023-11-19T13:59:04;10.40;91.00
16347;DHT22;8283;48.504;13.734;2023-11-19T14:01:23;10.30;90.90
16347;DHT22;8283;48.504;13.734;2023-11-19T14:03:42;10.40;90.90
16347;DHT22;8283;48.504;13.734;2023-11-19T14:06:02;10.40;90.90
16347;DHT22;8283;48.504;13.734;2023-11-19T14:08:22;10.40;91.20
16347;DHT22;8283;48.504;13.734;2023-11-19T14:10:41;10.40;91.40
16347;DHT22;8283;48.504;13.734;2023-11-19T14:13:00;10.40;91.40
16347;DHT22;8283;48.504;13.734;2023-11-19T14:15:19;10.50;91.60
16347;DHT22;8283;48.504;13.734;2023-11-19T14:17:40;10.50;91.40
16347;DHT22;8283;48.504;13.734;2023-11-19T14:20:00;10.60;91.20
16347;DHT22;8283;48.504;13.734;2023-11-19T14:22:19;10.60;91.10
16347;DHT22;8283;48.504;13.734;2023-11-19T14:24:38;10.60;91.10
16347;DHT22;8283;48.504;13.734;2023-11-19T14:27:01;10.60;91.10
16347;DHT22;8283;48.504;13.734;2023-11-19T14:29:20;10.60;91.10
16347;DHT22;8283;48.504;13.734;2023-11-19T14:31:40;10.60;90.90
16347;DHT22;8283;48.504;13.734;2023-11-19T14:33:59;10.60;90.90
16347;DHT22;8283;48.504;13.734;2023-11-19T14:36:18;10.60;91.00
16347;DHT22;8283;48.504;13.734;2023-11-19T14:38:38;9.70;90.70
16347;DHT22;8283;48.504;13.734;2023-11-19T14:40:57;10.60;91.00
16347;DHT22;8283;48.504;13.734;2023-11-19T14:43:18;10.60;91.00
16347;DHT22;8283;48.504;13.734;2023-11-19T14:45:37;10.60;91.00
16347;DHT22;8283;48.504;13.734;2023-11-19T14:47:57;10.60;91.00
16347;DHT22;8283;48.504;13.734;2023-11-19T14:50:16;10.60;91.00
16347;DHT22;8283;48.504;13.734;2023-11-19T14:52:36;9.80;90.70
16347;DHT22;8283;48.504;13.734;2023-11-19T14:54:55;10.60;91.00
16347;DHT22;8283;48.504;13.734;2023-11-19T14:57:15;10.60;90.90
16347;DHT22;8283;48.504;13.734;2023-11-19T14:59:38;10.60;90.90
16347;DHT22;8283;48.504;13.734;2023-11-19T15:01:57;10.60;90.90
16347;DHT22;8283;48.504;13.734;2023-11-19T15:04:17;10.50;91.00
16347;DHT22;8283;48.504;13.734;2023-11-19T15:06:37;10.50;91.10
16347;DHT22;8283;48.504;13.734;2023-11-19T15:08:56;10.50;91.10
16347;DHT22;8283;48.504;13.734;2023-11-19T15:11:16;10.50;91.00
16347;DHT22;8283;48.504;13.734;2023-11-19T15:13:35;10.50;91.10
16347;DHT22;8283;48.504;13.734;2023-11-19T15:15:59;10.50;91.20
16347;DHT22;8283;48.504;13.734;2023-11-19T15:18:18;10.50;91.30
16347;DHT22;8283;48.504;13.734;2023-11-19T15:20:39;10.50;91.30